Time;durP1;ratioP1;P1;durP2;ratioP2;P2;SDS_P1;SDS_P2;PMS_P1;PMS_P2;Temp;Humidity;BMP_temperature;BMP_pressure;BME280_temperature;BME280_humidity;BME280_pressure;Samples;Min_cycle;Max_cycle;Signal;HPM_P1;HPM_P2
2022/03/20 00:00:12;;;;;;;58.52;32.00;;;;;;;0.64;44.33;102894.33;2035764;86;29387;-64
2022/03/20 00:03:20;;;;;;;54.53;28.25;;;;;;;0.62;44.44;102896.01;2003081;88;27649;-63
2022/03/20 00:06:23;;;;;;;51.05;28.40;;;;;;;0.61;44.48;102896.85;2022193;87;28709;-63
2022/03/20 00:09:25;;;;;;;52.17;27.17;;;;;;;0.60;44.79;102894.62;2034134;86;32311;-62
2022/03/20 00:12:28;;;;;;;48.80;26.20;;;;;;;0.60;44.60;102893.30;2028209;87;32804;-64
2022/03/20 00:15:33;;;;;;;49.53;25.75;;;;;;;0.62;44.49;102897.33;2028787;87;29494;-64
2022/03/20 00:18:36;;;;;;;45.08;24.02;;;;;;;0.62;44.56;102896.41;2028741;87;27724;-63
2022/03/20 00:21:38;;;;;;;45.75;26.25;;;;;;;0.61;44.58;102896.85;2036807;86;28687;-63
2022/03/20 00:24:41;;;;;;;50.12;25.25;;;;;;;0.59;44.60;102890.63;2055510;86;31055;-65
2022/03/20 00:27:43;;;;;;;47.35;25.92;;;;;;;0.57;44.54;102889.67;2035588;86;34095;-65
2022/03/20 00:30:46;;;;;;;52.33;26.25;;;;;;;0.57;44.75;102890.59;2035412;87;31581;-65
2022/03/20 00:33:48;;;;;;;47.45;26.33;;;;;;;0.57;44.90;102885.31;2036063;87;27711;-64
2022/03/20 00:36:50;;;;;;;52.60;26.62;;;;;;;0.60;44.82;102883.19;2062969;84;29909;-63
2022/03/20 00:39:52;;;;;;;46.50;25.17;;;;;;;0.59;44.68;102878.31;2074496;85;31918;-65
2022/03/20 00:42:54;;;;;;;49.90;26.23;;;;;;;0.58;44.79;102880.48;2074547;85;34334;-65
2022/03/20 00:45:57;;;;;;;44.23;25.52;;;;;;;0.57;44.60;102872.12;2074857;85;29472;-62
2022/03/20 00:49:02;;;;;;;50.55;25.82;;;;;;;0.55;44.87;102873.80;2074469;85;27658;-65
2022/03/20 00:52:06;;;;;;;48.50;26.20;;;;;;;0.55;45.06;102876.84;2066666;85;29962;-64
2022/03/20 00:55:09;;;;;;;48.68;27.07;;;;;;;0.54;45.00;102879.02;2067791;86;31875;-65
2022/03/20 00:58:12;;;;;;;49.67;27.27;;;;;;;0.53;44.96;102874.17;2066898;86;32980;-64
2022/03/20 01:01:14;;;;;;;50.58;26.10;;;;;;;0.50;45.13;102863.95;2067559;86;30309;-65
2022/03/20 01:04:16;;;;;;;41.10;25.68;;;;;;;0.48;45.11;102863.00;2064408;86;27658;-64
2022/03/20 01:07:18;;;;;;;54.20;26.87;;;;;;;0.45;45.29;102861.13;2058598;86;29608;-64
2022/03/20 01:10:20;;;;;;;48.95;27.70;;;;;;;0.42;45.31;102863.26;2045473;87;32296;-63
2022/03/20 01:13:23;;;;;;;48.90;27.00;;;;;;;0.39;45.20;102857.88;2046102;87;33913;-64
2022/03/20 01:16:25;;;;;;;50.38;27.35;;;;;;;0.36;45.45;102853.80;2046215;85;29397;-65
2022/03/20 01:19:28;;;;;;;53.83;27.25;;;;;;;0.33;45.55;102859.41;2046377;87;27697;-65
2022/03/20 01:22:31;;;;;;;50.78;26.65;;;;;;;0.29;45.66;102859.73;2046485;87;29092;-62
2022/03/20 01:25:33;;;;;;;54.00;27.62;;;;;;;0.25;45.68;102860.02;2046399;87;31897;-63
2022/03/20 01:31:53;;;;;;;55.03;26.73;;;;;;;0.19;46.21;102856.28;2072730;80;27683;-69
2022/03/20 01:34:53;;;;;;;44.58;27.20;;;;;;;0.15;46.08;102852.65;2069973;86;27684;-69
2022/03/20 01:37:54;;;;;;;51.68;29.40;;;;;;;0.12;46.09;102845.95;2091022;84;28691;-71
2022/03/20 01:40:56;;;;;;;49.50;27.20;;;;;;;0.08;46.36;102846.27;2105892;84;31924;-69
2022/03/20 01:44:03;;;;;;;55.55;28.40;;;;;;;0.05;46.27;102851.42;2105318;84;33877;-71
2022/03/20 01:47:08;;;;;;;54.27;28.32;;;;;;;0.02;46.51;102847.80;2071846;84;29346;-71
2022/03/20 01:50:10;;;;;;;55.95;27.85;;;;;;;-0.04;46.33;102841.89;2071275;86;27719;-69
2022/03/20 01:53:12;;;;;;;51.18;26.00;;;;;;;-0.08;46.33;102844.81;2071085;86;28625;-69
2022/03/20 01:56:13;;;;;;;57.08;27.45;;;;;;;-0.11;46.71;102849.09;2070948;86;32334;-69
2022/03/20 01:59:17;;;;;;;49.53;26.52;;;;;;;-0.14;46.45;102851.61;2071198;86;33126;-70
2022/03/20 02:02:22;;;;;;;54.35;28.62;;;;;;;-0.17;46.44;102845.81;2071228;86;30113;-70
2022/03/20 02:05:23;;;;;;;58.95;29.05;;;;;;;-0.20;46.70;102845.70;2091230;84;33180;-70
2022/03/20 02:08:30;;;;;;;49.10;27.93;;;;;;;-0.24;46.68;102847.33;2106024;84;27705;-69
2022/03/20 02:11:33;;;;;;;53.30;27.77;;;;;;;-0.28;46.89;102839.27;2082411;84;30986;-69
2022/03/20 02:14:36;;;;;;;58.52;28.50;;;;;;;-0.31;46.97;102837.00;2105848;84;32966;-68
2022/03/20 02:17:39;;;;;;;56.75;29.20;;;;;;;-0.34;47.49;102832.92;2106488;84;29549;-69
2022/03/20 02:20:43;;;;;;;54.10;27.30;;;;;;;-0.36;47.48;102829.77;2106418;84;27679;-70
2022/03/20 02:23:45;;;;;;;53.68;29.48;;;;;;;-0.39;47.26;102828.34;2106399;84;28654;-68
2022/03/20 02:26:48;;;;;;;49.15;27.75;;;;;;;-0.41;47.27;102827.38;2106421;84;30689;-68
2022/03/20 02:29:52;;;;;;;57.33;28.32;;;;;;;-0.41;47.74;102840.55;2104868;84;32959;-71
2022/03/20 02:32:55;;;;;;;54.10;27.87;;;;;;;-0.42;47.57;102837.44;2095660;84;30323;-70
2022/03/20 02:35:57;;;;;;;56.20;28.83;;;;;;;-0.44;47.67;102831.21;2069244;86;27635;-69
2022/03/20 02:38:59;;;;;;;56.92;29.32;;;;;;;-0.47;47.82;102831.57;2069131;86;29451;-71
2022/03/20 02:42:04;;;;;;;55.80;27.62;;;;;;;-0.48;47.85;102824.51;2069107;86;31837;-69
2022/03/20 02:45:13;;;;;;;56.48;27.48;;;;;;;-0.49;47.81;102831.05;2069103;84;33116;-70
2022/03/20 02:48:15;;;;;;;55.30;28.90;;;;;;;-0.51;47.80;102834.95;2069205;86;29497;-67
2022/03/20 02:51:17;;;;;;;52.33;27.40;;;;;;;-0.51;47.84;102837.59;2069087;86;27777;-69
2022/03/20 02:54:23;;;;;;;57.95;27.73;;;;;;;-0.52;48.04;102846.72;2069026;86;28653;-71
2022/03/20 02:57:22;;;;;;;51.90;26.20;;;;;;;-0.54;48.27;102838.78;2055702;84;32008;-70
2022/03/20 03:00:27;;;;;;;50.50;26.42;;;;;;;-0.55;48.44;102847.52;2052613;84;32934;-71
2022/03/20 03:03:28;;;;;;;62.83;30.05;;;;;;;-0.55;48.65;102846.60;2098399;84;29306;-69
2022/03/20 03:06:30;;;;;;;50.95;27.25;;;;;;;-0.57;48.25;102843.02;2074877;84;27783;-68
2022/03/20 03:12:52;;;;;;;59.55;28.87;;;;;;;-0.62;48.28;102843.77;2069000;84;31242;-69
2022/03/20 03:15:56;;;;;;;56.28;28.70;;;;;;;-0.65;48.31;102849.30;2068843;86;33005;-69
2022/03/20 03:18:58;;;;;;;55.45;27.17;;;;;;;-0.67;48.85;102847.94;2067369;86;29332;-69
2022/03/20 03:22:01;;;;;;;53.95;28.02;;;;;;;-0.69;48.49;102846.10;2033518;87;27702;-68
2022/03/20 03:25:06;;;;;;;56.80;28.95;;;;;;;-0.72;48.58;102844.66;2016706;88;29498;-68
2022/03/20 03:28:09;;;;;;;52.90;26.77;;;;;;;-0.74;48.58;102848.53;2033368;86;31893;-70
2022/03/20 03:31:11;;;;;;;55.83;28.50;;;;;;;-0.77;48.87;102845.81;2053568;86;33190;-70
2022/03/20 03:37:33;;;;;;;58.00;29.40;;;;;;;-0.81;48.90;102848.72;2050790;85;27754;-69
2022/03/20 03:40:35;;;;;;;56.95;28.62;;;;;;;-0.81;48.67;102853.09;2033696;86;29674;-71
2022/03/20 03:43:38;;;;;;;60.17;28.55;;;;;;;-0.83;48.91;102849.10;2063388;85;31016;-70
2022/03/20 03:46:42;;;;;;;57.80;30.80;;;;;;;-0.84;49.05;102849.94;2061984;86;33687;-70
2022/03/20 03:49:44;;;;;;;55.35;28.40;;;;;;;-0.85;49.01;102853.41;2039500;85;29497;-70
2022/03/20 03:52:47;;;;;;;60.65;30.12;;;;;;;-0.86;48.99;102850.70;2062185;86;28233;-70
2022/03/20 03:55:49;;;;;;;54.38;29.55;;;;;;;-0.88;48.91;102849.33;2057160;86;28656;-69
2022/03/20 03:58:50;;;;;;;54.45;29.05;;;;;;;-0.88;48.99;102861.58;2056359;86;31012;-69
2022/03/20 04:01:52;;;;;;;55.67;27.67;;;;;;;-0.92;48.97;102861.48;2076967;85;33745;-69
2022/03/20 04:04:54;;;;;;;58.87;28.85;;;;;;;-0.93;48.93;102860.08;2069197;85;30084;-69
2022/03/20 04:07:56;;;;;;;55.67;30.02;;;;;;;-0.97;48.88;102858.16;2038181;87;27664;-70
2022/03/20 04:10:58;;;;;;;57.13;28.75;;;;;;;-1.00;49.06;102859.38;2060832;86;28649;-67
2022/03/20 04:14:00;;;;;;;57.23;27.82;;;;;;;-1.05;49.16;102857.86;2061692;86;31191;-67
2022/03/20 04:17:05;;;;;;;55.55;29.45;;;;;;;-1.08;49.10;102864.34;2040381;85;32954;-71
2022/03/20 04:20:07;;;;;;;53.98;29.57;;;;;;;-1.12;49.34;102865.05;2063344;86;29350;-69
2022/03/20 04:26:30;;;;;;;58.80;28.27;;;;;;;-1.18;49.36;102855.58;2063003;85;28694;-69
2022/03/20 04:29:32;;;;;;;54.58;28.60;;;;;;;-1.23;49.52;102858.03;2062670;86;31189;-68
2022/03/20 04:32:34;;;;;;;49.88;27.40;;;;;;;-1.26;49.68;102860.53;2071241;84;33683;-68
2022/03/20 04:35:35;;;;;;;59.48;28.55;;;;;;;-1.28;49.88;102861.80;2105945;84;29352;-68
2022/03/20 04:38:38;;;;;;;49.23;27.02;;;;;;;-1.30;49.89;102866.09;2106493;84;27745;-67
2022/03/20 04:41:39;;;;;;;58.75;30.23;;;;;;;-1.31;50.48;102862.97;2106366;84;28809;-69
2022/03/20 04:44:43;;;;;;;58.08;29.10;;;;;;;-1.33;50.12;102863.33;2106436;84;31026;-69
2022/03/20 05:01:06;;;;;;;57.05;27.60;;;;;;;-1.43;50.29;102859.41;2071276;84;31956;-69
2022/03/20 05:04:08;;;;;;;75.85;37.30;;;;;;;-1.43;50.77;102862.48;2071057;86;32965;-70
2022/03/20 05:07:10;;;;;;;56.83;28.87;;;;;;;-1.43;50.42;102865.98;2071186;86;29316;-69
2022/03/20 05:13:32;;;;;;;51.90;27.90;;;;;;;-1.41;50.55;102879.22;2071261;86;29646;-69
2022/03/20 05:16:33;;;;;;;61.37;30.00;;;;;;;-1.39;50.54;102882.78;2071226;86;31832;-70
2022/03/20 05:19:40;;;;;;;61.75;31.80;;;;;;;-1.36;50.68;102880.28;2101513;84;32976;-70
2022/03/20 05:22:42;;;;;;;61.37;30.08;;;;;;;-1.32;50.62;102887.47;2106355;84;30124;-69
2022/03/20 05:25:44;;;;;;;56.92;29.75;;;;;;;-1.28;50.98;102892.44;2106099;84;27775;-69
2022/03/20 05:28:46;;;;;;;60.33;28.83;;;;;;;-1.25;50.56;102892.56;2106339;84;29490;-70
2022/03/20 05:31:48;;;;;;;61.02;30.88;;;;;;;-1.18;50.71;102904.23;2102361;84;31043;-70
2022/03/20 05:34:49;;;;;;;52.78;27.90;;;;;;;-1.13;50.58;102902.70;2098475;84;33180;-71
2022/03/20 05:37:51;;;;;;;56.45;28.23;;;;;;;-1.09;50.80;102902.88;2098478;84;30420;-70
2022/03/20 05:41:43;;;;;;;51.48;27.45;;;;;;;-1.02;50.58;102904.03;2098430;84;28417;-70
2022/03/20 05:43:56;;;;;;;55.50;28.77;;;;;;;-0.96;50.80;102906.00;2095525;84;28651;-70
2022/03/20 05:47:01;;;;;;;52.40;27.65;;;;;;;-0.91;50.58;102909.73;2096052;84;31013;-70
2022/03/20 05:50:06;;;;;;;51.87;27.00;;;;;;;-0.83;50.54;102911.34;2069502;86;32966;-71
2022/03/20 05:53:07;;;;;;;;;;;;;;;-0.75;50.47;102915.60;2071709;86;28805;-69
2022/03/20 05:59:29;;;;;;;59.63;27.22;;;;;;;-0.58;50.35;102918.48;2069027;86;29526;-69
2022/03/20 06:02:31;;;;;;;53.75;29.02;;;;;;;-0.47;50.35;102912.32;2069215;84;31845;-70
2022/03/20 06:05:33;;;;;;;52.75;27.27;;;;;;;-0.35;50.26;102915.41;2069214;86;33816;-69
2022/03/20 06:08:35;;;;;;;48.65;25.62;;;;;;;-0.23;50.13;102914.07;2048026;86;30264;-70
2022/03/20 06:11:37;;;;;;;55.03;28.92;;;;;;;-0.10;50.05;102909.77;2069379;85;27785;-69
2022/03/20 06:14:38;;;;;;;60.28;30.12;;;;;;;0.07;49.83;102918.27;2069382;86;28625;-71
2022/03/20 06:17:44;;;;;;;53.75;27.30;;;;;;;0.29;49.58;102915.09;2069583;84;31178;-70
2022/03/20 06:20:46;;;;;;;49.10;27.37;;;;;;;0.59;49.35;102918.31;2067909;86;33162;-69
2022/03/20 06:23:47;;;;;;;51.88;27.17;;;;;;;0.94;49.22;102925.20;2032573;87;29324;-70
2022/03/20 06:26:50;;;;;;;55.88;26.90;;;;;;;1.36;48.84;102924.77;2014739;88;27694;-70
2022/03/20 06:29:52;;;;;;;51.42;26.90;;;;;;;1.79;48.18;102926.50;2016180;86;29557;-70
2022/03/20 06:32:56;;;;;;;45.48;27.65;;;;;;;2.19;48.36;102929.83;2016594;88;31886;-71
2022/03/20 06:35:57;;;;;;;49.27;26.23;;;;;;;2.64;47.84;102927.06;2016650;88;33166;-72
2022/03/20 06:38:59;;;;;;;44.08;24.72;;;;;;;3.07;46.36;102933.42;2016804;88;29327;-70
2022/03/20 06:42:01;;;;;;;49.20;26.48;;;;;;;3.49;46.05;102943.67;2016788;88;27806;-70
2022/03/20 06:45:08;;;;;;;50.63;25.95;;;;;;;3.87;44.89;102937.41;2017136;86;28687;-71
2022/03/20 06:48:10;;;;;;;47.88;24.65;;;;;;;4.26;45.17;102931.13;2001936;86;31046;-70
2022/03/20 06:51:12;;;;;;;48.70;25.20;;;;;;;4.69;44.51;102936.34;2044939;86;33152;-70
2022/03/20 06:54:14;;;;;;;43.90;25.00;;;;;;;4.98;43.69;102932.83;2103144;84;29527;-71
2022/03/20 06:57:20;;;;;;;46.90;26.90;;;;;;;5.37;43.11;102937.86;2068066;86;27610;-70
2022/03/20 07:00:23;;;;;;;44.58;25.17;;;;;;;5.74;43.22;102928.62;2050149;86;29506;-71
2022/03/20 07:03:25;;;;;;;40.58;24.00;;;;;;;6.12;42.49;102932.69;2050331;86;31035;-71
2022/03/20 07:06:29;;;;;;;53.40;28.15;;;;;;;6.51;42.13;102935.30;2104080;84;33603;-71
2022/03/20 07:09:30;;;;;;;42.80;26.30;;;;;;;6.76;41.02;102930.64;2088885;84;29460;-72
2022/03/20 07:12:32;;;;;;;44.20;25.37;;;;;;;6.91;40.56;102939.23;2071597;85;27695;-71
2022/03/20 07:15:36;;;;;;;44.75;24.72;;;;;;;7.06;39.44;102939.35;2072051;84;28663;-71
2022/03/20 07:18:37;;;;;;;45.98;26.80;;;;;;;7.29;40.64;102935.52;2070730;85;31010;-70
2022/03/20 07:21:41;;;;;;;47.80;25.92;;;;;;;7.65;39.52;102941.51;2070265;85;33011;-70
2022/03/20 07:24:44;;;;;;;39.75;24.10;;;;;;;7.82;38.84;102933.14;2069540;86;29894;-70
2022/03/20 07:31:06;;;;;;;47.00;25.68;;;;;;;8.50;38.53;102931.14;2070955;86;28703;-70
2022/03/20 07:34:08;;;;;;;46.88;25.88;;;;;;;8.85;37.27;102929.41;2070668;85;31076;-71
2022/03/20 07:37:10;;;;;;;44.13;24.90;;;;;;;8.94;36.92;102926.27;2070131;84;33781;-71
2022/03/20 07:40:12;;;;;;;41.60;26.60;;;;;;;9.10;35.85;102930.30;2070977;85;29321;-69
2022/03/20 07:43:15;;;;;;;38.85;23.83;;;;;;;9.25;36.67;102926.27;2071010;84;27726;-71
2022/03/20 07:46:16;;;;;;;42.73;25.12;;;;;;;9.56;35.73;102931.54;2069740;86;29491;-71
2022/03/20 07:49:22;;;;;;;43.35;27.25;;;;;;;9.79;35.96;102933.23;2069152;86;31036;-69
2022/03/20 07:52:24;;;;;;;49.65;27.02;;;;;;;10.02;34.16;102923.75;2072148;84;33782;-71
2022/03/20 07:55:28;;;;;;;46.73;26.30;;;;;;;10.14;34.71;102928.16;2106324;84;29347;-70
2022/03/20 07:58:29;;;;;;;45.92;25.52;;;;;;;10.32;33.32;102920.48;2077343;84;27763;-72
2022/03/20 08:01:31;;;;;;;44.53;28.52;;;;;;;10.44;33.42;102924.02;2070087;86;28618;-71
2022/03/20 08:04:32;;;;;;;41.58;26.40;;;;;;;10.61;33.37;102927.47;2071100;86;31208;-71
2022/03/20 08:07:38;;;;;;;43.58;27.58;;;;;;;10.81;32.56;102929.55;2071172;86;32947;-71
2022/03/20 08:10:41;;;;;;;45.03;27.52;;;;;;;10.88;32.73;102929.94;2030613;87;30203;-72
2022/03/20 08:13:44;;;;;;;41.70;26.68;;;;;;;11.12;31.98;102930.61;1997009;87;27593;-71
2022/03/20 08:16:48;;;;;;;45.05;26.85;;;;;;;11.32;31.28;102927.75;2029239;87;28648;-70
2022/03/20 08:19:49;;;;;;;45.90;28.92;;;;;;;11.31;31.09;102934.89;2031019;87;31039;-71
2022/03/20 08:22:52;;;;;;;44.80;27.45;;;;;;;11.19;31.04;102929.19;2028089;87;33100;-71
2022/03/20 08:25:54;;;;;;;41.75;27.05;;;;;;;11.27;31.01;102930.45;2028813;87;29323;-71
2022/03/20 08:28:55;;;;;;;43.52;26.93;;;;;;;11.40;31.21;102931.23;2048251;86;27766;-70
2022/03/20 08:31:59;;;;;;;42.05;27.65;;;;;;;11.53;30.84;102921.25;2028891;87;29778;-70
2022/03/20 08:35:01;;;;;;;48.25;28.07;;;;;;;11.51;30.76;102920.38;2028414;87;31082;-69
2022/03/20 08:38:03;;;;;;;45.00;28.47;;;;;;;11.38;31.13;102919.62;2029992;87;32954;-70
2022/03/20 08:41:05;;;;;;;46.33;27.32;;;;;;;11.22;30.46;102920.25;2029976;87;29346;-71
2022/03/20 08:44:08;;;;;;;41.08;27.00;;;;;;;10.84;30.74;102925.50;2062836;86;27743;-70
2022/03/20 08:47:10;;;;;;;46.40;27.07;;;;;;;10.54;30.29;102916.34;2030587;86;28722;-70
2022/03/20 08:50:14;;;;;;;50.80;29.12;;;;;;;10.33;30.24;102924.95;2028979;87;32009;-69
2022/03/20 08:53:20;;;;;;;43.52;27.85;;;;;;;10.14;30.60;102921.93;2028815;87;33112;-69
2022/03/20 08:56:21;;;;;;;43.00;26.77;;;;;;;9.93;30.58;102921.13;2030787;86;30261;-70
2022/03/20 08:59:23;;;;;;;43.60;25.82;;;;;;;9.64;30.58;102920.81;2028977;87;27642;-69
2022/03/20 09:02:25;;;;;;;48.52;29.37;;;;;;;9.51;30.93;102916.39;2030101;87;28732;-70
2022/03/20 09:05:27;;;;;;;46.35;27.50;;;;;;;9.45;30.60;102920.41;2030799;87;31075;-69
2022/03/20 09:08:30;;;;;;;47.13;26.93;;;;;;;9.38;30.98;102920.41;2004124;87;27829;-69
2022/03/20 09:11:32;;;;;;;53.05;28.15;;;;;;;9.22;30.90;102913.31;2038059;86;29330;-69
2022/03/20 09:14:35;;;;;;;43.52;27.90;;;;;;;9.12;30.96;102912.00;2067463;86;27802;-69
2022/03/20 09:20:57;;;;;;;47.85;27.10;;;;;;;9.06;31.19;102907.11;2067486;86;32057;-70
2022/03/20 09:24:00;;;;;;;49.25;27.17;;;;;;;9.03;31.08;102907.98;2067211;86;32386;-70
2022/03/20 09:27:02;;;;;;;40.58;25.80;;;;;;;9.02;30.98;102906.20;2067026;86;29322;-70
2022/03/20 09:30:07;;;;;;;40.03;25.35;;;;;;;9.04;31.20;102897.73;2043679;86;27850;-70
2022/03/20 09:33:10;;;;;;;37.90;25.70;;;;;;;9.09;31.25;102899.97;2021403;85;28623;-69
2022/03/20 09:36:13;;;;;;;47.53;27.45;;;;;;;9.09;30.95;102901.30;2008750;87;32104;-69
2022/03/20 09:39:16;;;;;;;43.73;25.50;;;;;;;9.06;31.09;102903.10;2016078;87;29715;-70
2022/03/20 09:42:21;;;;;;;41.28;25.82;;;;;;;8.99;31.06;102895.53;2020695;87;29326;-69
2022/03/20 09:45:24;;;;;;;41.28;25.17;;;;;;;9.04;31.47;102900.41;1995616;88;27951;-69
2022/03/20 09:48:29;;;;;;;41.48;26.52;;;;;;;9.08;31.48;102894.17;2009609;87;28670;-69
2022/03/20 09:51:32;;;;;;;37.08;23.62;;;;;;;9.18;31.65;102885.69;2010887;87;31074;-68
2022/03/20 09:54:34;;;;;;;42.60;25.40;;;;;;;9.30;31.01;102890.56;2039652;86;33796;-71
2022/03/20 09:57:36;;;;;;;46.37;26.95;;;;;;;9.33;31.20;102890.56;2009990;87;29420;-70
2022/03/20 10:00:39;;;;;;;34.80;22.73;;;;;;;9.38;31.18;102892.33;2009517;87;27650;-70
2022/03/20 10:03:41;;;;;;;35.90;21.20;;;;;;;9.48;30.70;102886.96;2010778;87;29680;-70
2022/03/20 10:06:43;;;;;;;32.93;21.60;;;;;;;9.49;30.98;102888.28;2010001;87;31017;-71
2022/03/20 10:10:08;;;;;;;39.35;23.12;;;;;;;9.53;30.57;102887.81;2027275;87;33213;-70
2022/03/20 10:13:14;;;;;;;31.70;20.52;;;;;;;9.57;30.25;102880.23;2044465;87;29331;-69
2022/03/20 10:16:18;;;;;;;31.82;20.60;;;;;;;9.59;30.58;102878.44;2044628;87;27760;-69
2022/03/20 10:19:27;;;;;;;38.08;21.33;;;;;;;9.64;30.56;102879.32;2044740;87;28664;-69
2022/03/20 10:22:32;;;;;;;33.85;19.57;;;;;;;9.67;30.32;102879.31;2044138;86;31819;-70
2022/03/20 10:25:34;;;;;;;32.00;20.02;;;;;;;9.72;30.38;102870.80;2022036;87;33049;-69
2022/03/20 10:28:52;;;;;;;33.10;20.57;;;;;;;9.77;29.81;102876.12;2044127;87;28912;-71
2022/03/20 10:32:08;;;;;;;31.55;19.50;;;;;;;9.82;30.13;102870.30;2043875;87;27285;-70
2022/03/20 10:35:11;;;;;;;28.38;17.82;;;;;;;9.94;29.67;102874.72;2036711;85;28683;-69
2022/03/20 10:38:14;;;;;;;32.13;19.90;;;;;;;9.98;30.14;102870.22;2030878;87;31054;-70
2022/03/20 10:41:34;;;;;;;32.50;19.70;;;;;;;10.03;29.90;102867.08;2029684;87;29596;-68
2022/03/20 10:44:38;;;;;;;31.65;18.77;;;;;;;10.10;30.02;102868.80;2030677;87;29415;-69
2022/03/20 10:47:39;;;;;;;29.65;19.17;;;;;;;10.18;29.64;102859.38;2030793;86;27664;-69
2022/03/20 10:50:47;;;;;;;30.52;17.25;;;;;;;10.23;30.00;102854.89;2030777;87;28624;-69
2022/03/20 10:53:56;;;;;;;28.98;18.15;;;;;;;10.29;28.93;102852.61;2030728;87;31047;-71
2022/03/20 10:57:00;;;;;;;29.42;17.73;;;;;;;10.30;29.40;102853.05;2030205;87;32975;-69
2022/03/20 11:00:07;;;;;;;25.70;16.93;;;;;;;10.31;29.33;102842.34;2028355;87;29506;-71
2022/03/20 11:03:10;;;;;;;22.50;12.82;;;;;;;10.37;29.30;102849.44;2003059;86;27672;-70
2022/03/20 11:06:13;;;;;;;23.45;13.70;;;;;;;10.42;28.15;102838.28;2029817;87;28634;-70
2022/03/20 11:09:16;;;;;;;20.97;13.95;;;;;;;10.47;28.21;102839.11;2030903;86;31862;-70
2022/03/20 11:12:25;;;;;;;21.68;12.95;;;;;;;10.52;28.44;102828.81;2030686;87;33074;-70
2022/03/20 11:15:33;;;;;;;21.35;14.33;;;;;;;10.57;28.22;102834.56;2030757;87;29339;-69
2022/03/20 11:18:45;;;;;;;19.82;12.00;;;;;;;10.64;28.09;102832.28;2030331;87;27552;-69
2022/03/20 11:21:46;;;;;;;15.72;11.78;;;;;;;10.67;27.43;102821.97;2029496;86;28531;-70
2022/03/20 11:24:51;;;;;;;19.25;11.70;;;;;;;10.74;27.66;102824.14;2046331;86;31036;-68
2022/03/20 11:28:01;;;;;;;23.57;12.15;;;;;;;10.82;27.80;102814.24;2066889;86;28716;-70
2022/03/20 11:31:03;;;;;;;19.90;11.85;;;;;;;10.94;27.20;102817.22;2067455;86;30148;-70
2022/03/20 11:34:08;;;;;;;19.98;11.63;;;;;;;10.93;25.81;102812.77;1990536;88;27915;-71
2022/03/20 11:37:12;;;;;;;17.00;10.60;;;;;;;10.86;26.46;102801.68;1969331;89;28844;-71
2022/03/20 11:40:21;;;;;;;18.85;11.73;;;;;;;10.84;26.18;102803.48;1947123;91;31865;-68
2022/03/20 11:43:23;;;;;;;17.52;12.35;;;;;;;10.86;26.10;102803.89;1947692;91;33678;-68
2022/03/20 11:46:30;;;;;;;16.40;11.12;;;;;;;10.88;26.32;102797.19;1972318;89;28989;-70
2022/03/20 11:49:32;;;;;;;19.32;12.70;;;;;;;10.90;26.50;102793.58;1980209;89;27756;-71
2022/03/20 11:52:53;;;;;;;19.82;11.85;;;;;;;10.92;25.73;102794.92;1980373;89;29508;-68
2022/03/20 11:55:54;;;;;;;18.40;10.68;;;;;;;10.90;26.08;102788.22;1980008;89;31197;-69
2022/03/20 11:58:56;;;;;;;18.23;11.53;;;;;;;10.90;25.59;102785.53;1981210;88;32965;-69
2022/03/20 12:05:51;;;;;;;17.17;11.33;;;;;;;10.92;25.43;102784.20;1893857;93;28453;-69
2022/03/20 12:09:39;;;;;;;19.98;12.50;;;;;;;10.92;25.50;102775.68;1903295;93;28701;-70
2022/03/20 12:13:05;;;;;;;19.32;10.63;;;;;;;10.93;25.31;102764.05;1886102;94;31289;-70
2022/03/20 12:16:09;;;;;;;17.60;11.05;;;;;;;10.94;25.08;102764.48;1874706;94;33958;-69
2022/03/20 12:19:24;;;;;;;16.93;11.50;;;;;;;10.98;25.64;102755.94;1874816;94;30323;-69
2022/03/20 12:22:29;;;;;;;16.35;10.35;;;;;;;11.00;25.21;102751.92;1858568;94;27799;-70
2022/03/20 12:25:44;;;;;;;20.02;10.88;;;;;;;11.04;24.71;102753.64;1846208;94;28854;-71
2022/03/20 12:28:48;;;;;;;20.17;12.20;;;;;;;11.04;24.87;102744.25;1839898;95;27929;-70
2022/03/20 12:32:11;;;;;;;23.52;13.30;;;;;;;11.03;24.75;102743.81;1843117;96;32959;-71
2022/03/20 12:35:18;;;;;;;22.07;13.10;;;;;;;11.00;24.98;102740.72;1796368;98;29369;-71
2022/03/20 12:38:41;;;;;;;18.42;11.78;;;;;;;11.02;25.49;102726.84;1799105;98;28422;-69
2022/03/20 12:41:43;;;;;;;21.05;12.68;;;;;;;11.06;24.69;102735.30;1789563;98;28712;-69
2022/03/20 12:44:52;;;;;;;19.57;13.03;;;;;;;11.06;25.01;102733.05;1804451;98;30483;-68
2022/03/20 12:47:58;;;;;;;22.70;14.23;;;;;;;11.06;25.29;102729.02;1794110;99;33014;-69
2022/03/20 12:51:10;;;;;;;22.30;13.15;;;;;;;11.08;25.21;102721.42;1788751;99;29953;-69
2022/03/20 12:54:15;;;;;;;19.52;13.03;;;;;;;11.10;24.84;102720.91;1757550;100;27779;-68
2022/03/20 12:57:17;;;;;;;23.02;13.72;;;;;;;11.09;24.82;102717.80;1757488;101;28743;-68
2022/03/20 13:00:23;;;;;;;16.07;11.10;;;;;;;11.09;24.59;102709.75;1761395;96;31068;-69
2022/03/20 13:03:26;;;;;;;21.87;12.47;;;;;;;11.13;24.84;102709.28;1900508;93;33041;-69
2022/03/20 13:06:28;;;;;;;20.20;12.07;;;;;;;11.13;24.57;102707.94;1852479;96;29509;-69
2022/03/20 13:09:30;;;;;;;17.42;11.10;;;;;;;11.12;24.71;102707.50;1854767;94;27845;-69
2022/03/20 13:13:02;;;;;;;18.42;11.63;;;;;;;11.09;23.82;102697.67;1911367;93;29492;-69
2022/03/20 13:15:59;;;;;;;17.60;10.50;;;;;;;11.09;24.07;102696.80;1910833;93;31229;-67
2022/03/20 13:19:03;;;;;;;17.12;12.07;;;;;;;11.07;23.55;102691.91;1909829;92;33861;-68
2022/03/20 13:22:10;;;;;;;20.15;13.13;;;;;;;11.07;24.03;102690.56;1954680;91;29332;-68
2022/03/20 13:25:18;;;;;;;22.15;11.88;;;;;;;11.08;24.01;102685.64;1955486;90;27854;-68
2022/03/20 13:28:29;;;;;;;15.23;11.00;;;;;;;11.10;24.23;102683.83;1955510;91;28798;-66
2022/03/20 13:31:29;;;;;;;17.95;12.00;;;;;;;11.12;23.65;102683.36;1944213;89;31988;-68
2022/03/20 13:34:33;;;;;;;16.90;11.08;;;;;;;11.12;23.93;102677.08;1979611;87;32954;-68
2022/03/20 13:37:35;;;;;;;17.07;11.08;;;;;;;11.13;23.84;102673.50;2009269;88;29585;-67
2022/03/20 13:40:36;;;;;;;19.52;11.08;;;;;;;11.12;23.89;102668.60;2063108;86;27677;-68
2022/03/20 13:43:39;;;;;;;17.92;11.65;;;;;;;11.10;23.84;102657.00;2063766;86;27752;-68
2022/03/20 13:46:41;;;;;;;18.30;11.40;;;;;;;11.12;23.30;102658.30;2064218;86;31037;-69
2022/03/20 13:49:43;;;;;;;22.10;12.55;;;;;;;11.14;23.64;102658.73;2064287;86;33724;-67
2022/03/20 13:52:49;;;;;;;15.55;10.48;;;;;;;11.13;23.61;102658.73;2057352;86;30152;-68
2022/03/20 13:55:52;;;;;;;17.30;10.32;;;;;;;11.13;23.45;102662.33;2029576;87;27699;-68
2022/03/20 13:59:07;;;;;;;20.15;9.45;;;;;;;11.14;23.87;102651.13;2028485;86;28691;-70
2022/03/20 14:02:09;;;;;;;15.90;9.78;;;;;;;11.16;23.37;102656.92;2027160;87;31890;-70
2022/03/20 14:05:21;;;;;;;16.77;11.55;;;;;;;11.19;23.14;102653.30;2028467;87;32967;-69
2022/03/20 14:08:20;;;;;;;18.12;10.43;;;;;;;11.18;23.40;102663.59;2030895;86;29405;-70
2022/03/20 14:11:32;;;;;;;16.52;10.78;;;;;;;11.17;23.33;102644.38;1997828;89;27695;-67
2022/03/20 14:14:47;;;;;;;14.50;9.75;;;;;;;11.16;23.20;102639.92;2022244;87;28664;-68
2022/03/20 14:17:54;;;;;;;16.27;9.78;;;;;;;11.17;23.64;102641.23;2029332;87;31219;-68
2022/03/20 14:21:10;;;;;;;17.75;9.98;;;;;;;11.19;23.23;102643.44;2029768;87;33923;-69
2022/03/20 14:24:12;;;;;;;17.95;10.98;;;;;;;11.17;23.17;102641.23;2028934;87;30175;-69
2022/03/20 14:27:14;;;;;;;18.05;10.48;;;;;;;11.18;23.08;102642.13;2028354;87;27689;-70
2022/03/20 14:40:46;;;;;;;13.20;8.73;;;;;;;11.11;23.42;102634.63;2030217;86;29620;-67
2022/03/20 14:44:07;;;;;;;15.93;9.55;;;;;;;11.08;23.44;102636.02;2030357;87;27805;-67
2022/03/20 14:47:08;;;;;;;15.68;10.18;;;;;;;11.05;23.17;102634.70;2029955;87;28822;-67
2022/03/20 14:50:10;;;;;;;12.73;8.93;;;;;;;11.03;22.82;102636.52;2030372;87;31809;-67
2022/03/20 14:53:24;;;;;;;18.17;10.10;;;;;;;10.94;23.06;102622.34;2030476;86;32953;-67